Pagina principale
METAR-TAF:

METAR-TAF

Aeroporti :

Aeroporto di Gran Canaria

Gran Canaria, Spagna

latitudine: 27-56N, longitudine: 015-23W, altezza: 23 m

Osservazione

Il bollettino è stato emesso 20 minuti fa, alle 13:00 UTC
Vento 22 kt da nord/nord-est
Temperature 28°C
Umidità 40%
Pressione 1014 hPa
Visibilità 10 km o più
Poco nuvoloso ad un'altezza di 2000 ft

METAR: GCLP 271300Z 03022KT 9999 FEW020 28/13 Q1014 NOSIG

Ora: 14:20 (13:20 UTC)

Previsione

Il bollettino è stato emesso 5 ore e 20 minuti fa, alle 08:00 UTC
Previsione valida dal 27 alle 09 UTC al 28 alle 09 UTC
Vento 19 kt da nord/nord-est
Visibilità 10 km o più
Poco nuvoloso ad un'altezza di 2000 ft
Probabilità 40% :
Temporaneamente
dal 27 alle 10 UTC al 27 alle 21 UTC
Vento 24 kt da nord/nord-est con raffiche fino a 34 kt

TAF: GCLP 270800Z 2709/2809 02019KT 9999 FEW020 TX26/2714Z TN19/2806Z PROB40 TEMPO 2710/2721 02024G34KT

Osservazioni e previsioni meteorologiche di più di 4000 aeroporti (messaggi METAR e TAF).

Le stazioni disponibili sono rappresentate dai dischi gialli e rossi sulla carta.

Puntare il mouse per vedere il nome della stazione.

Clicca sopra per visualizzare le osservazioni e previsioni meteorologiche.

Per cambiare la mappa : fare clic sui pulsanti verdi con una croce nera per ingrandire, il pulsante verde con un trattino per diminuire, o sulla freccia verde per le mappe adiacenti.


METAR-TAF: